sensor_id;sensor_type;location;lat;lon;timestamp;P1;durP1;ratioP1;P2;durP2;ratioP2
74465;SDS011;62916;50.044;15.938;2023-09-19T00:01:08;1.80;;;1.40;;
74465;SDS011;62916;50.044;15.938;2023-09-19T00:03:40;3.30;;;1.20;;
74465;SDS011;62916;50.044;15.938;2023-09-19T00:06:11;2.50;;;1.00;;
74465;SDS011;62916;50.044;15.938;2023-09-19T00:08:43;4.40;;;1.10;;
74465;SDS011;62916;50.044;15.938;2023-09-19T00:11:15;1.50;;;1.10;;
74465;SDS011;62916;50.044;15.938;2023-09-19T00:13:48;1.70;;;1.00;;
74465;SDS011;62916;50.044;15.938;2023-09-19T00:16:19;2.20;;;1.10;;
74465;SDS011;62916;50.044;15.938;2023-09-19T00:18:50;1.60;;;1.20;;
74465;SDS011;62916;50.044;15.938;2023-09-19T00:21:21;1.80;;;0.90;;
74465;SDS011;62916;50.044;15.938;2023-09-19T00:23:52;2.60;;;0.90;;
74465;SDS011;62916;50.044;15.938;2023-09-19T00:26:23;1.80;;;1.10;;
74465;SDS011;62916;50.044;15.938;2023-09-19T00:28:54;1.30;;;1.20;;
74465;SDS011;62916;50.044;15.938;2023-09-19T00:31:25;1.50;;;0.70;;
74465;SDS011;62916;50.044;15.938;2023-09-19T00:33:58;1.10;;;1.00;;
74465;SDS011;62916;50.044;15.938;2023-09-19T00:36:32;1.20;;;1.10;;
74465;SDS011;62916;50.044;15.938;2023-09-19T00:39:06;1.70;;;0.90;;
74465;SDS011;62916;50.044;15.938;2023-09-19T00:41:38;3.00;;;1.40;;
74465;SDS011;62916;50.044;15.938;2023-09-19T00:44:12;2.50;;;1.10;;
74465;SDS011;62916;50.044;15.938;2023-09-19T00:46:45;1.40;;;1.10;;
74465;SDS011;62916;50.044;15.938;2023-09-19T00:49:18;1.90;;;0.80;;
74465;SDS011;62916;50.044;15.938;2023-09-19T00:51:50;1.50;;;1.10;;
74465;SDS011;62916;50.044;15.938;2023-09-19T00:54:21;1.70;;;0.90;;
74465;SDS011;62916;50.044;15.938;2023-09-19T00:56:53;1.60;;;0.80;;
74465;SDS011;62916;50.044;15.938;2023-09-19T00:59:24;2.00;;;0.70;;
74465;SDS011;62916;50.044;15.938;2023-09-19T01:01:56;2.00;;;1.00;;
74465;SDS011;62916;50.044;15.938;2023-09-19T01:04:28;1.30;;;1.00;;
74465;SDS011;62916;50.044;15.938;2023-09-19T01:06:59;2.10;;;1.10;;
74465;SDS011;62916;50.044;15.938;2023-09-19T01:09:30;1.90;;;1.00;;
74465;SDS011;62916;50.044;15.938;2023-09-19T01:12:03;1.00;;;0.60;;
74465;SDS011;62916;50.044;15.938;2023-09-19T01:14:40;1.10;;;0.80;;
74465;SDS011;62916;50.044;15.938;2023-09-19T01:17:17;1.90;;;1.00;;
74465;SDS011;62916;50.044;15.938;2023-09-19T01:20:06;1.80;;;0.80;;
74465;SDS011;62916;50.044;15.938;2023-09-19T01:22:48;1.70;;;0.80;;
74465;SDS011;62916;50.044;15.938;2023-09-19T01:28:43;1.60;;;1.00;;
74465;SDS011;62916;50.044;15.938;2023-09-19T01:31:22;1.30;;;0.70;;
74465;SDS011;62916;50.044;15.938;2023-09-19T01:33:59;1.80;;;0.80;;
74465;SDS011;62916;50.044;15.938;2023-09-19T01:36:33;4.30;;;1.10;;
74465;SDS011;62916;50.044;15.938;2023-09-19T01:39:07;1.70;;;0.80;;
74465;SDS011;62916;50.044;15.938;2023-09-19T01:41:45;1.10;;;0.60;;
74465;SDS011;62916;50.044;15.938;2023-09-19T01:44:24;2.20;;;0.70;;
74465;SDS011;62916;50.044;15.938;2023-09-19T01:47:01;2.00;;;1.00;;
74465;SDS011;62916;50.044;15.938;2023-09-19T01:49:44;1.90;;;1.00;;
74465;SDS011;62916;50.044;15.938;2023-09-19T01:52:19;1.90;;;1.40;;
74465;SDS011;62916;50.044;15.938;2023-09-19T01:54:55;2.70;;;0.70;;
74465;SDS011;62916;50.044;15.938;2023-09-19T01:57:32;1.20;;;0.80;;
74465;SDS011;62916;50.044;15.938;2023-09-19T02:00:12;1.60;;;0.80;;
74465;SDS011;62916;50.044;15.938;2023-09-19T02:02:46;1.30;;;0.60;;
74465;SDS011;62916;50.044;15.938;2023-09-19T02:05:23;1.30;;;0.70;;
74465;SDS011;62916;50.044;15.938;2023-09-19T02:07:55;1.20;;;0.70;;
74465;SDS011;62916;50.044;15.938;2023-09-19T02:10:26;2.10;;;0.80;;
74465;SDS011;62916;50.044;15.938;2023-09-19T02:12:57;1.20;;;0.90;;
74465;SDS011;62916;50.044;15.938;2023-09-19T02:15:28;1.40;;;1.10;;
74465;SDS011;62916;50.044;15.938;2023-09-19T02:18:04;1.50;;;0.90;;
74465;SDS011;62916;50.044;15.938;2023-09-19T02:20:35;1.50;;;1.00;;
74465;SDS011;62916;50.044;15.938;2023-09-19T02:23:06;0.90;;;0.80;;
74465;SDS011;62916;50.044;15.938;2023-09-19T02:25:37;1.60;;;0.90;;
74465;SDS011;62916;50.044;15.938;2023-09-19T02:28:09;2.40;;;1.00;;
74465;SDS011;62916;50.044;15.938;2023-09-19T02:30:40;1.30;;;1.00;;
74465;SDS011;62916;50.044;15.938;2023-09-19T02:33:11;1.90;;;0.80;;
74465;SDS011;62916;50.044;15.938;2023-09-19T02:35:42;1.20;;;0.80;;
74465;SDS011;62916;50.044;15.938;2023-09-19T02:38:13;1.50;;;1.10;;
74465;SDS011;62916;50.044;15.938;2023-09-19T02:40:48;1.50;;;0.70;;
74465;SDS011;62916;50.044;15.938;2023-09-19T02:43:20;2.60;;;1.00;;
74465;SDS011;62916;50.044;15.938;2023-09-19T02:45:51;2.80;;;0.90;;
74465;SDS011;62916;50.044;15.938;2023-09-19T02:48:22;1.70;;;1.00;;
74465;SDS011;62916;50.044;15.938;2023-09-19T02:50:53;1.90;;;1.00;;
74465;SDS011;62916;50.044;15.938;2023-09-19T02:53:24;1.40;;;1.00;;
74465;SDS011;62916;50.044;15.938;2023-09-19T02:55:55;2.00;;;1.30;;
74465;SDS011;62916;50.044;15.938;2023-09-19T02:58:27;1.30;;;0.90;;
74465;SDS011;62916;50.044;15.938;2023-09-19T03:00:58;1.80;;;1.10;;
74465;SDS011;62916;50.044;15.938;2023-09-19T03:03:36;2.20;;;1.00;;
74465;SDS011;62916;50.044;15.938;2023-09-19T03:06:08;2.80;;;1.20;;
74465;SDS011;62916;50.044;15.938;2023-09-19T03:08:40;1.20;;;0.80;;
74465;SDS011;62916;50.044;15.938;2023-09-19T03:11:11;1.60;;;1.00;;
74465;SDS011;62916;50.044;15.938;2023-09-19T03:13:43;2.10;;;1.00;;
74465;SDS011;62916;50.044;15.938;2023-09-19T03:16:15;2.10;;;0.70;;
74465;SDS011;62916;50.044;15.938;2023-09-19T03:18:47;1.00;;;0.80;;
74465;SDS011;62916;50.044;15.938;2023-09-19T03:21:18;1.40;;;0.70;;
74465;SDS011;62916;50.044;15.938;2023-09-19T03:23:49;1.00;;;0.70;;
74465;SDS011;62916;50.044;15.938;2023-09-19T03:26:20;0.90;;;0.60;;
74465;SDS011;62916;50.044;15.938;2023-09-19T03:28:54;3.10;;;1.10;;
74465;SDS011;62916;50.044;15.938;2023-09-19T03:31:25;2.20;;;1.00;;
74465;SDS011;62916;50.044;15.938;2023-09-19T03:33:56;1.70;;;0.80;;
74465;SDS011;62916;50.044;15.938;2023-09-19T03:36:27;1.20;;;1.00;;
74465;SDS011;62916;50.044;15.938;2023-09-19T03:38:59;3.00;;;0.90;;
74465;SDS011;62916;50.044;15.938;2023-09-19T03:44:04;2.10;;;1.00;;
74465;SDS011;62916;50.044;15.938;2023-09-19T03:46:35;2.00;;;0.90;;
74465;SDS011;62916;50.044;15.938;2023-09-19T03:49:07;0.80;;;0.70;;
74465;SDS011;62916;50.044;15.938;2023-09-19T03:51:38;1.00;;;0.70;;
74465;SDS011;62916;50.044;15.938;2023-09-19T03:54:09;0.70;;;0.50;;
74465;SDS011;62916;50.044;15.938;2023-09-19T03:56:40;1.90;;;0.80;;
74465;SDS011;62916;50.044;15.938;2023-09-19T03:59:11;1.70;;;0.80;;
74465;SDS011;62916;50.044;15.938;2023-09-19T04:01:42;2.10;;;1.00;;
74465;SDS011;62916;50.044;15.938;2023-09-19T04:04:14;1.90;;;1.00;;
74465;SDS011;62916;50.044;15.938;2023-09-19T04:06:46;0.90;;;0.80;;
74465;SDS011;62916;50.044;15.938;2023-09-19T04:09:17;1.00;;;0.60;;
74465;SDS011;62916;50.044;15.938;2023-09-19T04:11:48;1.50;;;1.30;;
74465;SDS011;62916;50.044;15.938;2023-09-19T04:14:19;1.20;;;0.90;;
74465;SDS011;62916;50.044;15.938;2023-09-19T04:16:50;1.40;;;1.20;;
74465;SDS011;62916;50.044;15.938;2023-09-19T04:19:22;2.60;;;0.80;;
74465;SDS011;62916;50.044;15.938;2023-09-19T04:21:52;1.60;;;1.10;;
74465;SDS011;62916;50.044;15.938;2023-09-19T04:24:23;10.70;;;1.60;;
74465;SDS011;62916;50.044;15.938;2023-09-19T04:26:54;16.90;;;2.60;;
74465;SDS011;62916;50.044;15.938;2023-09-19T04:29:26;10.70;;;1.60;;
74465;SDS011;62916;50.044;15.938;2023-09-19T04:31:57;10.20;;;1.80;;
74465;SDS011;62916;50.044;15.938;2023-09-19T04:34:28;5.90;;;2.00;;
74465;SDS011;62916;50.044;15.938;2023-09-19T04:36:59;6.50;;;1.30;;
74465;SDS011;62916;50.044;15.938;2023-09-19T04:39:32;8.10;;;1.60;;
74465;SDS011;62916;50.044;15.938;2023-09-19T04:42:03;3.90;;;1.10;;
74465;SDS011;62916;50.044;15.938;2023-09-19T04:44:34;5.40;;;1.30;;
74465;SDS011;62916;50.044;15.938;2023-09-19T04:47:06;2.80;;;1.10;;
74465;SDS011;62916;50.044;15.938;2023-09-19T04:49:40;4.20;;;0.80;;
74465;SDS011;62916;50.044;15.938;2023-09-19T04:52:11;4.80;;;1.50;;
74465;SDS011;62916;50.044;15.938;2023-09-19T04:54:43;4.80;;;1.30;;
74465;SDS011;62916;50.044;15.938;2023-09-19T04:57:15;4.70;;;1.10;;
74465;SDS011;62916;50.044;15.938;2023-09-19T04:59:46;3.40;;;1.10;;
74465;SDS011;62916;50.044;15.938;2023-09-19T05:02:18;5.40;;;1.20;;
74465;SDS011;62916;50.044;15.938;2023-09-19T05:04:48;2.70;;;0.80;;
74465;SDS011;62916;50.044;15.938;2023-09-19T05:07:21;3.30;;;1.10;;
74465;SDS011;62916;50.044;15.938;2023-09-19T05:09:53;2.40;;;1.10;;
74465;SDS011;62916;50.044;15.938;2023-09-19T05:12:25;1.80;;;1.00;;
74465;SDS011;62916;50.044;15.938;2023-09-19T05:14:56;3.80;;;1.10;;
74465;SDS011;62916;50.044;15.938;2023-09-19T05:17:27;2.60;;;1.00;;
74465;SDS011;62916;50.044;15.938;2023-09-19T05:19:58;2.10;;;0.90;;
74465;SDS011;62916;50.044;15.938;2023-09-19T05:22:34;2.30;;;0.80;;
74465;SDS011;62916;50.044;15.938;2023-09-19T05:25:08;1.60;;;0.80;;
74465;SDS011;62916;50.044;15.938;2023-09-19T05:27:39;2.90;;;0.90;;
74465;SDS011;62916;50.044;15.938;2023-09-19T05:30:11;2.20;;;1.00;;
74465;SDS011;62916;50.044;15.938;2023-09-19T05:32:43;0.90;;;0.80;;
74465;SDS011;62916;50.044;15.938;2023-09-19T05:35:17;1.50;;;1.00;;
74465;SDS011;62916;50.044;15.938;2023-09-19T05:37:49;1.10;;;0.90;;
74465;SDS011;62916;50.044;15.938;2023-09-19T05:40:21;1.30;;;1.00;;
74465;SDS011;62916;50.044;15.938;2023-09-19T05:42:52;2.10;;;0.90;;
74465;SDS011;62916;50.044;15.938;2023-09-19T05:45:23;2.00;;;0.90;;
74465;SDS011;62916;50.044;15.938;2023-09-19T05:47:55;0.90;;;0.70;;
74465;SDS011;62916;50.044;15.938;2023-09-19T05:50:36;2.00;;;0.80;;
74465;SDS011;62916;50.044;15.938;2023-09-19T05:53:07;0.90;;;0.80;;
74465;SDS011;62916;50.044;15.938;2023-09-19T05:55:39;1.20;;;0.90;;
74465;SDS011;62916;50.044;15.938;2023-09-19T05:58:10;0.90;;;0.70;;
74465;SDS011;62916;50.044;15.938;2023-09-19T06:00:42;1.80;;;0.80;;
74465;SDS011;62916;50.044;15.938;2023-09-19T06:03:15;1.90;;;1.00;;
74465;SDS011;62916;50.044;15.938;2023-09-19T06:05:47;2.70;;;1.20;;
74465;SDS011;62916;50.044;15.938;2023-09-19T06:08:19;1.40;;;0.90;;
74465;SDS011;62916;50.044;15.938;2023-09-19T06:10:50;1.80;;;0.60;;
74465;SDS011;62916;50.044;15.938;2023-09-19T06:13:21;0.90;;;0.80;;
74465;SDS011;62916;50.044;15.938;2023-09-19T06:18:24;1.10;;;0.90;;
74465;SDS011;62916;50.044;15.938;2023-09-19T06:20:57;1.50;;;0.70;;
74465;SDS011;62916;50.044;15.938;2023-09-19T06:23:31;1.00;;;0.60;;
74465;SDS011;62916;50.044;15.938;2023-09-19T06:26:02;1.50;;;0.70;;
74465;SDS011;62916;50.044;15.938;2023-09-19T06:28:34;1.10;;;0.80;;
74465;SDS011;62916;50.044;15.938;2023-09-19T06:31:05;1.40;;;0.80;;
74465;SDS011;62916;50.044;15.938;2023-09-19T06:33:38;0.90;;;0.90;;
74465;SDS011;62916;50.044;15.938;2023-09-19T06:36:09;1.00;;;0.70;;
74465;SDS011;62916;50.044;15.938;2023-09-19T06:38:41;1.20;;;0.60;;
74465;SDS011;62916;50.044;15.938;2023-09-19T06:41:11;0.80;;;0.70;;
74465;SDS011;62916;50.044;15.938;2023-09-19T06:43:43;1.10;;;0.50;;
74465;SDS011;62916;50.044;15.938;2023-09-19T06:46:14;0.80;;;0.80;;
74465;SDS011;62916;50.044;15.938;2023-09-19T06:48:45;1.40;;;0.80;;
74465;SDS011;62916;50.044;15.938;2023-09-19T06:51:17;1.80;;;0.70;;
74465;SDS011;62916;50.044;15.938;2023-09-19T06:53:49;1.00;;;0.70;;
74465;SDS011;62916;50.044;15.938;2023-09-19T06:56:22;0.90;;;0.70;;
74465;SDS011;62916;50.044;15.938;2023-09-19T06:58:53;0.90;;;0.50;;
74465;SDS011;62916;50.044;15.938;2023-09-19T07:01:24;0.50;;;0.50;;
74465;SDS011;62916;50.044;15.938;2023-09-19T07:03:55;1.00;;;0.60;;
74465;SDS011;62916;50.044;15.938;2023-09-19T07:06:27;1.00;;;0.70;;
74465;SDS011;62916;50.044;15.938;2023-09-19T07:08:58;1.40;;;0.80;;
74465;SDS011;62916;50.044;15.938;2023-09-19T07:11:30;1.40;;;0.80;;
74465;SDS011;62916;50.044;15.938;2023-09-19T07:14:02;0.90;;;0.70;;
74465;SDS011;62916;50.044;15.938;2023-09-19T07:16:34;1.40;;;0.70;;
74465;SDS011;62916;50.044;15.938;2023-09-19T07:19:05;1.40;;;0.70;;
74465;SDS011;62916;50.044;15.938;2023-09-19T07:21:35;1.20;;;0.80;;
74465;SDS011;62916;50.044;15.938;2023-09-19T07:24:07;0.90;;;0.70;;
74465;SDS011;62916;50.044;15.938;2023-09-19T07:26:38;0.80;;;0.60;;
74465;SDS011;62916;50.044;15.938;2023-09-19T07:29:09;0.70;;;0.70;;
74465;SDS011;62916;50.044;15.938;2023-09-19T07:31:40;1.10;;;0.50;;
74465;SDS011;62916;50.044;15.938;2023-09-19T07:34:12;1.90;;;0.90;;
74465;SDS011;62916;50.044;15.938;2023-09-19T07:36:43;1.30;;;0.80;;
74465;SDS011;62916;50.044;15.938;2023-09-19T07:39:15;1.30;;;0.90;;
74465;SDS011;62916;50.044;15.938;2023-09-19T07:41:50;1.40;;;0.70;;
74465;SDS011;62916;50.044;15.938;2023-09-19T07:44:22;0.80;;;0.60;;
74465;SDS011;62916;50.044;15.938;2023-09-19T07:46:53;2.40;;;0.50;;
74465;SDS011;62916;50.044;15.938;2023-09-19T07:49:24;1.30;;;0.70;;
74465;SDS011;62916;50.044;15.938;2023-09-19T07:51:56;0.60;;;0.60;;
74465;SDS011;62916;50.044;15.938;2023-09-19T07:54:27;1.90;;;1.30;;
74465;SDS011;62916;50.044;15.938;2023-09-19T07:57:05;2.40;;;0.90;;
74465;SDS011;62916;50.044;15.938;2023-09-19T07:59:36;1.80;;;1.30;;
74465;SDS011;62916;50.044;15.938;2023-09-19T08:02:10;1.20;;;0.60;;
74465;SDS011;62916;50.044;15.938;2023-09-19T08:04:44;1.10;;;0.80;;
74465;SDS011;62916;50.044;15.938;2023-09-19T08:07:15;0.70;;;0.70;;
74465;SDS011;62916;50.044;15.938;2023-09-19T08:09:46;2.80;;;1.00;;
74465;SDS011;62916;50.044;15.938;2023-09-19T08:12:17;2.00;;;1.10;;
74465;SDS011;62916;50.044;15.938;2023-09-19T08:14:52;1.40;;;0.70;;
74465;SDS011;62916;50.044;15.938;2023-09-19T08:17:23;1.80;;;0.60;;
74465;SDS011;62916;50.044;15.938;2023-09-19T08:19:54;0.80;;;0.50;;
74465;SDS011;62916;50.044;15.938;2023-09-19T08:22:26;1.40;;;0.80;;
74465;SDS011;62916;50.044;15.938;2023-09-19T08:24:56;3.30;;;0.60;;
74465;SDS011;62916;50.044;15.938;2023-09-19T08:27:32;1.40;;;0.90;;
74465;SDS011;62916;50.044;15.938;2023-09-19T08:30:05;1.60;;;1.10;;
74465;SDS011;62916;50.044;15.938;2023-09-19T08:32:36;0.70;;;0.70;;
74465;SDS011;62916;50.044;15.938;2023-09-19T08:35:09;1.10;;;0.90;;
74465;SDS011;62916;50.044;15.938;2023-09-19T08:37:41;0.80;;;0.80;;
74465;SDS011;62916;50.044;15.938;2023-09-19T08:40:14;1.70;;;0.70;;
74465;SDS011;62916;50.044;15.938;2023-09-19T08:42:48;0.70;;;0.60;;
74465;SDS011;62916;50.044;15.938;2023-09-19T08:45:21;1.90;;;1.10;;
74465;SDS011;62916;50.044;15.938;2023-09-19T08:47:56;1.10;;;0.70;;
74465;SDS011;62916;50.044;15.938;2023-09-19T08:50:36;0.90;;;0.60;;
74465;SDS011;62916;50.044;15.938;2023-09-19T08:53:12;1.20;;;0.90;;
74465;SDS011;62916;50.044;15.938;2023-09-19T08:55:50;1.60;;;0.50;;
74465;SDS011;62916;50.044;15.938;2023-09-19T08:58:27;1.50;;;0.50;;
74465;SDS011;62916;50.044;15.938;2023-09-19T09:01:03;1.30;;;0.70;;
74465;SDS011;62916;50.044;15.938;2023-09-19T09:03:36;1.10;;;0.70;;
74465;SDS011;62916;50.044;15.938;2023-09-19T09:06:09;2.00;;;0.70;;
74465;SDS011;62916;50.044;15.938;2023-09-19T09:08:44;2.70;;;0.90;;
74465;SDS011;62916;50.044;15.938;2023-09-19T09:11:15;0.60;;;0.60;;
74465;SDS011;62916;50.044;15.938;2023-09-19T09:13:47;1.10;;;0.70;;
74465;SDS011;62916;50.044;15.938;2023-09-19T09:16:18;1.30;;;0.80;;
74465;SDS011;62916;50.044;15.938;2023-09-19T09:18:54;1.00;;;0.60;;
74465;SDS011;62916;50.044;15.938;2023-09-19T09:21:25;1.60;;;0.90;;
74465;SDS011;62916;50.044;15.938;2023-09-19T09:23:57;1.20;;;0.90;;
74465;SDS011;62916;50.044;15.938;2023-09-19T09:26:43;0.90;;;0.60;;
74465;SDS011;62916;50.044;15.938;2023-09-19T09:29:15;1.20;;;0.70;;
74465;SDS011;62916;50.044;15.938;2023-09-19T09:32:17;2.40;;;0.60;;
74465;SDS011;62916;50.044;15.938;2023-09-19T09:34:50;0.90;;;0.70;;
74465;SDS011;62916;50.044;15.938;2023-09-19T09:51:48;1.00;;;0.90;;
74465;SDS011;62916;50.044;15.938;2023-09-19T09:54:28;0.60;;;0.60;;
74465;SDS011;62916;50.044;15.938;2023-09-19T09:57:05;1.20;;;0.90;;
74465;SDS011;62916;50.044;15.938;2023-09-19T09:59:49;1.50;;;0.90;;
74465;SDS011;62916;50.044;15.938;2023-09-19T10:02:26;1.10;;;0.80;;
74465;SDS011;62916;50.044;15.938;2023-09-19T10:05:03;1.40;;;1.10;;
74465;SDS011;62916;50.044;15.938;2023-09-19T10:07:50;0.90;;;0.80;;
74465;SDS011;62916;50.044;15.938;2023-09-19T10:10:32;1.70;;;1.20;;
74465;SDS011;62916;50.044;15.938;2023-09-19T10:13:21;1.70;;;0.80;;
74465;SDS011;62916;50.044;15.938;2023-09-19T10:15:58;1.50;;;1.00;;
74465;SDS011;62916;50.044;15.938;2023-09-19T10:18:38;1.20;;;0.90;;
74465;SDS011;62916;50.044;15.938;2023-09-19T10:21:12;0.80;;;0.80;;
74465;SDS011;62916;50.044;15.938;2023-09-19T10:23:43;1.00;;;0.90;;
74465;SDS011;62916;50.044;15.938;2023-09-19T10:26:16;0.80;;;0.80;;
74465;SDS011;62916;50.044;15.938;2023-09-19T10:31:19;1.10;;;0.90;;
74465;SDS011;62916;50.044;15.938;2023-09-19T10:33:52;1.00;;;0.90;;
74465;SDS011;62916;50.044;15.938;2023-09-19T10:36:24;1.10;;;0.80;;
74465;SDS011;62916;50.044;15.938;2023-09-19T10:38:58;1.80;;;0.90;;
74465;SDS011;62916;50.044;15.938;2023-09-19T10:41:34;0.90;;;0.80;;
74465;SDS011;62916;50.044;15.938;2023-09-19T10:44:06;1.70;;;0.70;;
74465;SDS011;62916;50.044;15.938;2023-09-19T10:46:37;1.60;;;0.90;;
74465;SDS011;62916;50.044;15.938;2023-09-19T10:49:08;1.50;;;0.90;;
74465;SDS011;62916;50.044;15.938;2023-09-19T10:51:42;0.80;;;0.70;;
74465;SDS011;62916;50.044;15.938;2023-09-19T10:54:16;2.30;;;1.00;;
74465;SDS011;62916;50.044;15.938;2023-09-19T10:56:54;1.20;;;0.90;;
74465;SDS011;62916;50.044;15.938;2023-09-19T10:59:27;1.00;;;0.90;;
74465;SDS011;62916;50.044;15.938;2023-09-19T11:02:15;1.70;;;0.90;;
74465;SDS011;62916;50.044;15.938;2023-09-19T11:04:46;1.30;;;0.90;;
74465;SDS011;62916;50.044;15.938;2023-09-19T11:07:18;0.90;;;0.80;;
74465;SDS011;62916;50.044;15.938;2023-09-19T11:09:50;0.80;;;0.80;;
74465;SDS011;62916;50.044;15.938;2023-09-19T11:18:54;0.90;;;0.70;;
74465;SDS011;62916;50.044;15.938;2023-09-19T11:24:29;1.80;;;1.00;;
74465;SDS011;62916;50.044;15.938;2023-09-19T11:27:11;0.70;;;0.70;;
74465;SDS011;62916;50.044;15.938;2023-09-19T11:29:45;1.20;;;0.70;;
74465;SDS011;62916;50.044;15.938;2023-09-19T11:32:17;1.00;;;0.70;;
74465;SDS011;62916;50.044;15.938;2023-09-19T11:35:26;1.30;;;0.70;;
74465;SDS011;62916;50.044;15.938;2023-09-19T11:41:39;1.50;;;0.70;;
74465;SDS011;62916;50.044;15.938;2023-09-19T11:47:06;1.00;;;0.70;;
74465;SDS011;62916;50.044;15.938;2023-09-19T11:49:40;1.10;;;0.60;;
74465;SDS011;62916;50.044;15.938;2023-09-19T11:52:18;0.70;;;0.70;;
74465;SDS011;62916;50.044;15.938;2023-09-19T11:54:55;0.90;;;0.80;;
74465;SDS011;62916;50.044;15.938;2023-09-19T11:57:27;1.00;;;0.80;;
74465;SDS011;62916;50.044;15.938;2023-09-19T11:59:59;1.10;;;0.90;;
74465;SDS011;62916;50.044;15.938;2023-09-19T12:02:35;1.30;;;0.80;;
74465;SDS011;62916;50.044;15.938;2023-09-19T12:05:09;0.80;;;0.60;;
74465;SDS011;62916;50.044;15.938;2023-09-19T12:07:43;0.80;;;0.80;;
74465;SDS011;62916;50.044;15.938;2023-09-19T12:10:17;1.40;;;1.30;;
74465;SDS011;62916;50.044;15.938;2023-09-19T12:12:51;0.60;;;0.60;;
74465;SDS011;62916;50.044;15.938;2023-09-19T12:15:24;1.00;;;0.80;;
74465;SDS011;62916;50.044;15.938;2023-09-19T12:18:02;0.70;;;0.70;;
74465;SDS011;62916;50.044;15.938;2023-09-19T12:20:44;1.10;;;0.90;;
74465;SDS011;62916;50.044;15.938;2023-09-19T12:23:17;0.80;;;0.80;;
74465;SDS011;62916;50.044;15.938;2023-09-19T12:25:49;1.10;;;0.80;;
74465;SDS011;62916;50.044;15.938;2023-09-19T12:28:21;1.20;;;0.80;;
74465;SDS011;62916;50.044;15.938;2023-09-19T12:30:56;0.70;;;0.60;;
74465;SDS011;62916;50.044;15.938;2023-09-19T12:33:36;1.60;;;1.30;;
74465;SDS011;62916;50.044;15.938;2023-09-19T12:36:20;1.80;;;1.20;;
74465;SDS011;62916;50.044;15.938;2023-09-19T12:38:57;1.10;;;0.70;;
74465;SDS011;62916;50.044;15.938;2023-09-19T12:41:28;1.20;;;1.00;;
74465;SDS011;62916;50.044;15.938;2023-09-19T12:44:00;0.60;;;0.60;;
74465;SDS011;62916;50.044;15.938;2023-09-19T12:46:36;0.50;;;0.50;;
74465;SDS011;62916;50.044;15.938;2023-09-19T12:49:17;1.10;;;0.70;;
74465;SDS011;62916;50.044;15.938;2023-09-19T12:51:48;1.50;;;0.70;;
74465;SDS011;62916;50.044;15.938;2023-09-19T12:54:26;1.30;;;1.00;;
74465;SDS011;62916;50.044;15.938;2023-09-19T12:57:08;0.90;;;0.90;;
74465;SDS011;62916;50.044;15.938;2023-09-19T12:59:53;0.60;;;0.60;;
74465;SDS011;62916;50.044;15.938;2023-09-19T13:02:25;1.10;;;0.80;;
74465;SDS011;62916;50.044;15.938;2023-09-19T13:04:57;0.80;;;0.80;;
74465;SDS011;62916;50.044;15.938;2023-09-19T13:07:41;1.10;;;0.80;;
74465;SDS011;62916;50.044;15.938;2023-09-19T13:10:15;1.20;;;0.50;;
74465;SDS011;62916;50.044;15.938;2023-09-19T13:12:48;1.30;;;0.70;;
74465;SDS011;62916;50.044;15.938;2023-09-19T13:15:19;2.40;;;0.80;;
74465;SDS011;62916;50.044;15.938;2023-09-19T13:17:53;0.70;;;0.50;;
74465;SDS011;62916;50.044;15.938;2023-09-19T13:20:29;1.00;;;0.90;;
74465;SDS011;62916;50.044;15.938;2023-09-19T13:23:07;1.00;;;0.70;;
74465;SDS011;62916;50.044;15.938;2023-09-19T13:25:56;0.90;;;0.90;;
74465;SDS011;62916;50.044;15.938;2023-09-19T13:28:27;0.90;;;0.60;;
74465;SDS011;62916;50.044;15.938;2023-09-19T13:30:58;1.20;;;0.80;;
74465;SDS011;62916;50.044;15.938;2023-09-19T13:33:29;0.90;;;0.80;;
74465;SDS011;62916;50.044;15.938;2023-09-19T13:36:01;1.30;;;0.80;;
74465;SDS011;62916;50.044;15.938;2023-09-19T13:38:32;1.30;;;1.00;;
74465;SDS011;62916;50.044;15.938;2023-09-19T13:41:04;1.00;;;0.90;;
74465;SDS011;62916;50.044;15.938;2023-09-19T13:43:35;0.90;;;0.80;;
74465;SDS011;62916;50.044;15.938;2023-09-19T13:46:06;0.80;;;0.70;;
74465;SDS011;62916;50.044;15.938;2023-09-19T13:48:40;1.00;;;0.80;;
74465;SDS011;62916;50.044;15.938;2023-09-19T13:51:11;1.00;;;0.60;;
74465;SDS011;62916;50.044;15.938;2023-09-19T13:53:43;1.30;;;0.80;;
74465;SDS011;62916;50.044;15.938;2023-09-19T13:56:16;1.20;;;0.60;;
74465;SDS011;62916;50.044;15.938;2023-09-19T13:58:47;0.80;;;0.70;;
74465;SDS011;62916;50.044;15.938;2023-09-19T14:01:18;1.50;;;0.70;;
74465;SDS011;62916;50.044;15.938;2023-09-19T14:03:49;1.00;;;0.80;;
74465;SDS011;62916;50.044;15.938;2023-09-19T14:06:22;0.90;;;0.70;;
74465;SDS011;62916;50.044;15.938;2023-09-19T14:08:53;0.80;;;0.80;;
74465;SDS011;62916;50.044;15.938;2023-09-19T14:11:24;0.90;;;0.80;;
74465;SDS011;62916;50.044;15.938;2023-09-19T14:13:55;1.80;;;0.90;;
74465;SDS011;62916;50.044;15.938;2023-09-19T14:16:26;0.90;;;0.80;;
74465;SDS011;62916;50.044;15.938;2023-09-19T14:18:59;0.90;;;0.80;;
74465;SDS011;62916;50.044;15.938;2023-09-19T14:21:30;1.10;;;0.70;;
74465;SDS011;62916;50.044;15.938;2023-09-19T14:24:01;0.50;;;0.50;;
74465;SDS011;62916;50.044;15.938;2023-09-19T14:26:34;1.20;;;0.80;;
74465;SDS011;62916;50.044;15.938;2023-09-19T14:29:05;1.30;;;0.80;;
74465;SDS011;62916;50.044;15.938;2023-09-19T14:31:38;0.90;;;0.70;;
74465;SDS011;62916;50.044;15.938;2023-09-19T14:34:09;1.00;;;1.00;;
74465;SDS011;62916;50.044;15.938;2023-09-19T14:36:41;0.70;;;0.70;;
74465;SDS011;62916;50.044;15.938;2023-09-19T14:39:11;1.20;;;0.80;;
74465;SDS011;62916;50.044;15.938;2023-09-19T14:41:42;0.80;;;0.80;;
74465;SDS011;62916;50.044;15.938;2023-09-19T14:44:13;5.00;;;1.10;;
74465;SDS011;62916;50.044;15.938;2023-09-19T14:46:45;8.40;;;1.40;;
74465;SDS011;62916;50.044;15.938;2023-09-19T14:49:16;3.60;;;1.10;;
74465;SDS011;62916;50.044;15.938;2023-09-19T14:51:47;5.00;;;1.20;;
74465;SDS011;62916;50.044;15.938;2023-09-19T14:54:20;4.40;;;0.70;;
74465;SDS011;62916;50.044;15.938;2023-09-19T14:56:52;7.10;;;1.30;;
74465;SDS011;62916;50.044;15.938;2023-09-19T14:59:31;1.80;;;0.70;;
74465;SDS011;62916;50.044;15.938;2023-09-19T15:02:05;4.70;;;1.10;;
74465;SDS011;62916;50.044;15.938;2023-09-19T15:04:36;6.10;;;1.30;;
74465;SDS011;62916;50.044;15.938;2023-09-19T15:07:09;4.50;;;1.10;;
74465;SDS011;62916;50.044;15.938;2023-09-19T15:09:42;4.00;;;1.40;;
74465;SDS011;62916;50.044;15.938;2023-09-19T15:12:14;2.80;;;1.00;;
74465;SDS011;62916;50.044;15.938;2023-09-19T15:14:45;4.80;;;0.90;;
74465;SDS011;62916;50.044;15.938;2023-09-19T15:17:15;2.90;;;1.00;;
74465;SDS011;62916;50.044;15.938;2023-09-19T15:19:49;2.70;;;0.80;;
74465;SDS011;62916;50.044;15.938;2023-09-19T15:22:21;1.70;;;1.00;;
74465;SDS011;62916;50.044;15.938;2023-09-19T15:24:52;3.30;;;0.70;;
74465;SDS011;62916;50.044;15.938;2023-09-19T15:27:24;3.20;;;1.00;;
74465;SDS011;62916;50.044;15.938;2023-09-19T15:29:55;2.40;;;1.20;;
74465;SDS011;62916;50.044;15.938;2023-09-19T15:32:26;2.80;;;1.00;;
74465;SDS011;62916;50.044;15.938;2023-09-19T15:34:58;1.60;;;1.10;;
74465;SDS011;62916;50.044;15.938;2023-09-19T15:37:29;2.00;;;0.90;;
74465;SDS011;62916;50.044;15.938;2023-09-19T15:40:00;2.30;;;0.80;;
74465;SDS011;62916;50.044;15.938;2023-09-19T15:42:36;3.10;;;1.30;;
74465;SDS011;62916;50.044;15.938;2023-09-19T15:45:08;1.60;;;0.80;;
74465;SDS011;62916;50.044;15.938;2023-09-19T15:47:39;2.40;;;1.00;;
74465;SDS011;62916;50.044;15.938;2023-09-19T15:50:11;3.60;;;1.00;;